Time;durP1;ratioP1;P1;durP2;ratioP2;P2;SDS_P1;SDS_P2;PMS_P1;PMS_P2;Temp;Humidity;BMP_temperature;BMP_pressure;BME280_temperature;BME280_humidity;BME280_pressure;Samples;Min_cycle;Max_cycle;Signal;HPM_P1;HPM_P2
2024/03/29 00:00:09;;;;;;;2.05;0.80;;;;;;;;;;471461;28;1385;-68
2024/03/29 00:00:25;;;;;;;2.50;1.00;;;;;;;;;;471555;28;1243;-68
2024/03/29 00:00:40;;;;;;;2.80;1.08;;;;;;;;;;469786;28;1248;-68
2024/03/29 00:00:56;;;;;;;2.73;1.00;;;;;;;;;;471549;28;1297;-68
2024/03/29 00:01:12;;;;;;;2.80;1.00;;;;;;;;;;473546;28;1093;-69
2024/03/29 00:01:27;;;;;;;2.63;0.90;;;;;;;;;;470568;28;1091;-68
2024/03/29 00:01:43;;;;;;;3.08;0.90;;;;;;;;;;470692;28;977;-68
2024/03/29 00:01:59;;;;;;;3.20;1.00;;;;;;;;;;470980;28;1154;-68
2024/03/29 00:02:14;;;;;;;2.77;1.00;;;;;;;;;;471045;28;914;-68
2024/03/29 00:02:29;;;;;;;3.22;0.90;;;;;;;;;;473031;28;982;-68
2024/03/29 00:02:45;;;;;;;3.17;1.00;;;;;;;;;;474840;28;953;-68
2024/03/29 00:03:00;;;;;;;2.30;1.08;;;;;;;;;;475751;28;917;-68
2024/03/29 00:03:15;;;;;;;2.77;1.13;;;;;;;;;;473631;28;1122;-69
2024/03/29 00:03:31;;;;;;;3.13;1.10;;;;;;;;;;475104;28;1180;-68
2024/03/29 00:03:46;;;;;;;3.92;1.08;;;;;;;;;;475263;28;954;-68
2024/03/29 00:04:01;;;;;;;4.03;1.10;;;;;;;;;;475117;28;1597;-68
2024/03/29 00:04:17;;;;;;;3.37;0.93;;;;;;;;;;473526;28;1205;-68
2024/03/29 00:04:32;;;;;;;3.55;0.95;;;;;;;;;;475658;28;1961;-68
2024/03/29 00:04:47;;;;;;;2.60;1.00;;;;;;;;;;474366;28;1214;-68
2024/03/29 00:05:03;;;;;;;2.67;0.97;;;;;;;;;;473831;28;1128;-69
2024/03/29 00:05:24;;;;;;;3.95;1.02;;;;;;;;;;473765;28;931;-68
2024/03/29 00:05:40;;;;;;;3.05;1.00;;;;;;;;;;473238;28;1117;-69
2024/03/29 00:05:55;;;;;;;3.10;1.08;;;;;;;;;;473341;28;881;-67
2024/03/29 00:06:10;;;;;;;2.93;1.17;;;;;;;;;;472347;28;902;-68
2024/03/29 00:06:26;;;;;;;2.67;1.10;;;;;;;;;;474336;28;1212;-68
2024/03/29 00:06:41;;;;;;;3.50;1.08;;;;;;;;;;474307;28;1191;-68
2024/03/29 00:06:57;;;;;;;2.97;1.10;;;;;;;;;;476783;28;1016;-68
2024/03/29 00:07:12;;;;;;;2.20;1.00;;;;;;;;;;476021;28;1021;-69
2024/03/29 00:07:27;;;;;;;2.83;0.93;;;;;;;;;;475556;28;1267;-68
2024/03/29 00:07:42;;;;;;;2.87;1.00;;;;;;;;;;475256;28;1018;-68
2024/03/29 00:07:58;;;;;;;2.60;1.00;;;;;;;;;;475855;28;1123;-68
2024/03/29 00:08:13;;;;;;;2.40;0.90;;;;;;;;;;474762;28;900;-68
2024/03/29 00:08:28;;;;;;;2.60;1.00;;;;;;;;;;471358;28;1173;-69
2024/03/29 00:08:44;;;;;;;2.50;1.00;;;;;;;;;;472151;28;901;-67
2024/03/29 00:09:00;;;;;;;2.25;0.90;;;;;;;;;;473723;28;915;-68
2024/03/29 00:09:16;;;;;;;2.53;1.00;;;;;;;;;;475426;28;1041;-67
2024/03/29 00:09:31;;;;;;;2.50;1.00;;;;;;;;;;474661;28;1282;-68
2024/03/29 00:09:46;;;;;;;3.43;0.93;;;;;;;;;;475089;28;1204;-68
2024/03/29 00:10:02;;;;;;;4.97;1.10;;;;;;;;;;475762;28;955;-69
2024/03/29 00:10:17;;;;;;;4.90;1.00;;;;;;;;;;474725;28;1715;-68
2024/03/29 00:10:33;;;;;;;3.50;0.90;;;;;;;;;;476314;28;944;-68
2024/03/29 00:10:50;;;;;;;2.03;0.80;;;;;;;;;;476014;28;1150;-68
2024/03/29 00:11:06;;;;;;;2.20;0.85;;;;;;;;;;476005;28;1001;-68
2024/03/29 00:11:21;;;;;;;2.37;0.80;;;;;;;;;;474263;28;1072;-68
2024/03/29 00:11:36;;;;;;;2.53;0.83;;;;;;;;;;474997;28;906;-68
2024/03/29 00:11:52;;;;;;;2.80;0.90;;;;;;;;;;476024;28;997;-68
2024/03/29 00:12:07;;;;;;;2.60;0.90;;;;;;;;;;476491;28;1039;-68
2024/03/29 00:12:22;;;;;;;2.63;0.90;;;;;;;;;;474827;28;1132;-68
2024/03/29 00:12:38;;;;;;;2.90;0.80;;;;;;;;;;475258;28;955;-68
2024/03/29 00:12:53;;;;;;;3.53;1.00;;;;;;;;;;472905;28;1180;-68
2024/03/29 00:13:08;;;;;;;3.53;1.00;;;;;;;;;;473589;28;1040;-69
2024/03/29 00:13:24;;;;;;;3.47;1.00;;;;;;;;;;475874;28;933;-69
2024/03/29 00:13:39;;;;;;;3.13;0.80;;;;;;;;;;474026;28;1223;-69
2024/03/29 00:13:55;;;;;;;2.40;0.70;;;;;;;;;;472411;28;1109;-69
2024/03/29 00:14:10;;;;;;;1.92;0.70;;;;;;;;;;470305;28;1090;-69
2024/03/29 00:14:26;;;;;;;2.20;0.80;;;;;;;;;;472376;28;1382;-69
2024/03/29 00:14:43;;;;;;;3.47;1.08;;;;;;;;;;470221;28;1042;-68
2024/03/29 00:14:59;;;;;;;3.85;1.00;;;;;;;;;;473159;28;918;-68
2024/03/29 00:15:14;;;;;;;3.90;1.10;;;;;;;;;;470731;28;975;-68
2024/03/29 00:15:31;;;;;;;3.30;1.10;;;;;;;;;;472636;28;1391;-69
2024/03/29 00:15:47;;;;;;;2.78;0.90;;;;;;;;;;473264;28;1121;-70
2024/03/29 00:16:02;;;;;;;3.07;0.70;;;;;;;;;;475149;28;897;-69
2024/03/29 00:16:18;;;;;;;2.75;0.82;;;;;;;;;;474330;28;1598;-69
2024/03/29 00:16:33;;;;;;;3.93;1.10;;;;;;;;;;473859;28;1070;-69
2024/03/29 00:16:48;;;;;;;3.70;1.07;;;;;;;;;;472915;28;1082;-69
2024/03/29 00:17:04;;;;;;;2.95;0.90;;;;;;;;;;473335;28;921;-68
2024/03/29 00:17:19;;;;;;;3.50;0.80;;;;;;;;;;473192;28;1361;-68
2024/03/29 00:17:35;;;;;;;2.85;0.80;;;;;;;;;;473586;28;1173;-70
2024/03/29 00:17:50;;;;;;;3.33;0.97;;;;;;;;;;471596;28;1045;-70
2024/03/29 00:18:06;;;;;;;4.40;1.08;;;;;;;;;;473360;28;858;-68
2024/03/29 00:18:22;;;;;;;4.00;0.90;;;;;;;;;;472106;28;1215;-69
2024/03/29 00:18:37;;;;;;;3.03;0.97;;;;;;;;;;472361;28;916;-69
2024/03/29 00:18:53;;;;;;;2.92;1.13;;;;;;;;;;472528;28;902;-69
2024/03/29 00:19:08;;;;;;;3.10;1.10;;;;;;;;;;471541;28;1239;-68
2024/03/29 00:19:23;;;;;;;2.60;0.80;;;;;;;;;;471814;28;1415;-68
2024/03/29 00:19:39;;;;;;;2.63;0.90;;;;;;;;;;471801;28;1292;-69
2024/03/29 00:19:54;;;;;;;2.63;0.87;;;;;;;;;;472076;28;866;-68
2024/03/29 00:20:10;;;;;;;3.10;0.90;;;;;;;;;;472093;28;1173;-69
2024/03/29 00:20:25;;;;;;;3.80;1.02;;;;;;;;;;473708;28;909;-68
2024/03/29 00:20:40;;;;;;;2.90;0.80;;;;;;;;;;471555;28;1132;-68
2024/03/29 00:20:56;;;;;;;2.80;0.70;;;;;;;;;;472392;28;953;-68
2024/03/29 00:21:11;;;;;;;2.23;0.70;;;;;;;;;;474005;28;1269;-69
2024/03/29 00:21:26;;;;;;;2.55;0.75;;;;;;;;;;472848;28;1111;-69
2024/03/29 00:21:42;;;;;;;3.37;0.90;;;;;;;;;;475194;28;1072;-68
2024/03/29 00:21:57;;;;;;;3.30;0.93;;;;;;;;;;473026;28;1279;-69
2024/03/29 00:22:12;;;;;;;3.42;1.00;;;;;;;;;;474664;28;1065;-69
2024/03/29 00:22:28;;;;;;;3.90;1.00;;;;;;;;;;473929;28;921;-68
2024/03/29 00:22:43;;;;;;;2.87;0.80;;;;;;;;;;476014;28;989;-69
2024/03/29 00:22:58;;;;;;;1.65;0.70;;;;;;;;;;472900;28;918;-68
2024/03/29 00:23:14;;;;;;;2.93;0.73;;;;;;;;;;469616;28;1022;-69
2024/03/29 00:23:29;;;;;;;3.00;0.80;;;;;;;;;;471649;28;901;-69
2024/03/29 00:23:45;;;;;;;2.15;0.85;;;;;;;;;;470607;28;1079;-68
2024/03/29 00:24:00;;;;;;;2.63;0.90;;;;;;;;;;473280;28;1221;-68
2024/03/29 00:24:15;;;;;;;2.78;0.88;;;;;;;;;;475824;28;885;-68
2024/03/29 00:24:31;;;;;;;3.20;0.90;;;;;;;;;;473868;28;1181;-68
2024/03/29 00:24:46;;;;;;;3.10;0.70;;;;;;;;;;471080;28;1086;-69
2024/03/29 00:25:01;;;;;;;2.28;0.70;;;;;;;;;;473202;28;956;-69
2024/03/29 00:25:17;;;;;;;2.43;0.90;;;;;;;;;;475447;28;1310;-68
2024/03/29 00:25:32;;;;;;;2.70;0.90;;;;;;;;;;475272;28;944;-69
2024/03/29 00:25:47;;;;;;;3.00;0.80;;;;;;;;;;474859;28;952;-69
2024/03/29 00:26:03;;;;;;;2.92;0.88;;;;;;;;;;476249;28;1164;-68
2024/03/29 00:26:18;;;;;;;3.20;0.90;;;;;;;;;;475254;28;1188;-69
2024/03/29 00:26:33;;;;;;;2.83;0.77;;;;;;;;;;472848;28;1053;-69
2024/03/29 00:26:49;;;;;;;2.67;0.73;;;;;;;;;;475412;28;973;-69
2024/03/29 00:27:04;;;;;;;2.77;0.77;;;;;;;;;;476458;28;1120;-68
2024/03/29 00:27:20;;;;;;;2.47;0.88;;;;;;;;;;477013;28;925;-68
2024/03/29 00:27:36;;;;;;;2.50;0.90;;;;;;;;;;474603;28;1155;-68
2024/03/29 00:27:51;;;;;;;2.27;0.77;;;;;;;;;;473279;28;1188;-69
2024/03/29 00:28:06;;;;;;;2.55;0.80;;;;;;;;;;473947;28;1098;-69
2024/03/29 00:28:22;;;;;;;2.53;0.87;;;;;;;;;;473350;28;1167;-69
2024/03/29 00:28:38;;;;;;;3.57;0.90;;;;;;;;;;472333;28;1024;-68
2024/03/29 00:28:55;;;;;;;3.97;0.75;;;;;;;;;;471283;28;1050;-68
2024/03/29 00:29:10;;;;;;;2.60;0.80;;;;;;;;;;471753;28;1422;-70
2024/03/29 00:29:26;;;;;;;2.30;0.70;;;;;;;;;;471558;28;1024;-69
2024/03/29 00:29:43;;;;;;;1.98;0.63;;;;;;;;;;471495;28;902;-68
2024/03/29 00:29:59;;;;;;;2.70;0.88;;;;;;;;;;469044;28;973;-68
2024/03/29 00:30:14;;;;;;;2.60;0.90;;;;;;;;;;470313;28;1256;-69
2024/03/29 00:30:29;;;;;;;1.58;0.70;;;;;;;;;;468042;28;1152;-70
2024/03/29 00:30:45;;;;;;;1.60;0.70;;;;;;;;;;469623;28;940;-68
2024/03/29 00:31:00;;;;;;;1.87;0.70;;;;;;;;;;472280;28;1232;-68
2024/03/29 00:31:15;;;;;;;2.42;0.70;;;;;;;;;;473974;28;1127;-69
2024/03/29 00:31:31;;;;;;;2.33;0.70;;;;;;;;;;474570;28;1088;-68
2024/03/29 00:31:46;;;;;;;2.20;0.70;;;;;;;;;;474486;28;1053;-68
2024/03/29 00:32:01;;;;;;;1.88;0.55;;;;;;;;;;473822;28;1016;-68
2024/03/29 00:32:17;;;;;;;1.73;0.60;;;;;;;;;;473576;28;1135;-68
2024/03/29 00:32:32;;;;;;;2.40;0.75;;;;;;;;;;475065;28;1529;-69
2024/03/29 00:32:47;;;;;;;2.17;0.70;;;;;;;;;;475539;28;1128;-69
2024/03/29 00:33:03;;;;;;;1.93;0.77;;;;;;;;;;476929;28;988;-70
2024/03/29 00:33:18;;;;;;;3.05;0.90;;;;;;;;;;477550;28;1037;-69
2024/03/29 00:33:35;;;;;;;3.23;0.77;;;;;;;;;;477410;28;1007;-68
2024/03/29 00:33:50;;;;;;;2.33;0.77;;;;;;;;;;477411;28;923;-69
2024/03/29 00:34:05;;;;;;;2.50;0.82;;;;;;;;;;477282;28;1198;-68
2024/03/29 00:34:21;;;;;;;2.83;0.90;;;;;;;;;;477075;28;1171;-69
2024/03/29 00:34:37;;;;;;;3.15;0.77;;;;;;;;;;474353;28;1342;-69
2024/03/29 00:34:54;;;;;;;2.43;0.70;;;;;;;;;;474364;28;1334;-69
2024/03/29 00:35:09;;;;;;;2.38;0.70;;;;;;;;;;474308;28;991;-68
2024/03/29 00:35:24;;;;;;;2.50;0.80;;;;;;;;;;474439;28;889;-69
2024/03/29 00:35:40;;;;;;;1.87;0.70;;;;;;;;;;474007;28;925;-68
2024/03/29 00:35:56;;;;;;;1.58;0.65;;;;;;;;;;476740;28;1280;-69
2024/03/29 00:36:11;;;;;;;2.10;0.80;;;;;;;;;;475894;28;949;-70
2024/03/29 00:36:27;;;;;;;2.37;0.90;;;;;;;;;;475834;28;928;-71
2024/03/29 00:36:42;;;;;;;2.30;0.80;;;;;;;;;;477065;28;1017;-69
2024/03/29 00:36:57;;;;;;;2.20;0.68;;;;;;;;;;476049;28;1224;-69
2024/03/29 00:37:13;;;;;;;2.13;0.70;;;;;;;;;;477783;28;1014;-69
2024/03/29 00:37:28;;;;;;;3.58;0.98;;;;;;;;;;475229;28;909;-69
2024/03/29 00:37:43;;;;;;;3.63;1.00;;;;;;;;;;477064;28;1142;-69
2024/03/29 00:37:59;;;;;;;2.77;0.80;;;;;;;;;;472463;28;988;-68
2024/03/29 00:38:14;;;;;;;2.97;0.68;;;;;;;;;;473521;28;924;-68
2024/03/29 00:38:30;;;;;;;2.57;0.70;;;;;;;;;;473074;28;1045;-69
2024/03/29 00:38:45;;;;;;;2.60;0.70;;;;;;;;;;473353;28;1185;-69
2024/03/29 00:39:00;;;;;;;2.10;0.67;;;;;;;;;;473589;28;1209;-69
2024/03/29 00:39:16;;;;;;;2.17;0.70;;;;;;;;;;473669;28;1109;-69
2024/03/29 00:39:31;;;;;;;2.95;0.73;;;;;;;;;;474706;28;981;-69
2024/03/29 00:39:47;;;;;;;3.50;0.80;;;;;;;;;;475345;28;1073;-69
2024/03/29 00:40:02;;;;;;;2.85;0.80;;;;;;;;;;475431;28;1089;-69
2024/03/29 00:40:18;;;;;;;2.57;0.80;;;;;;;;;;474908;28;921;-69
2024/03/29 00:40:36;;;;;;;3.05;0.80;;;;;;;;;;473110;28;1252;-69
2024/03/29 00:40:51;;;;;;;3.25;1.00;;;;;;;;;;475763;28;901;-68
2024/03/29 00:41:07;;;;;;;3.00;1.00;;;;;;;;;;474525;28;921;-68
2024/03/29 00:41:22;;;;;;;2.30;0.70;;;;;;;;;;476397;28;937;-69
2024/03/29 00:41:37;;;;;;;2.23;0.60;;;;;;;;;;475656;28;921;-69
2024/03/29 00:41:53;;;;;;;2.17;0.67;;;;;;;;;;474807;28;881;-68
2024/03/29 00:42:09;;;;;;;1.83;0.70;;;;;;;;;;477039;28;981;-69
2024/03/29 00:42:25;;;;;;;2.58;0.73;;;;;;;;;;476517;28;1151;-69
2024/03/29 00:42:40;;;;;;;3.00;0.80;;;;;;;;;;477432;28;878;-68
2024/03/29 00:42:55;;;;;;;3.30;0.70;;;;;;;;;;477343;28;1072;-68
2024/03/29 00:43:11;;;;;;;3.23;0.80;;;;;;;;;;475444;28;1532;-69
2024/03/29 00:43:26;;;;;;;2.45;0.70;;;;;;;;;;473290;28;1097;-69
2024/03/29 00:43:41;;;;;;;2.63;0.67;;;;;;;;;;471208;28;1312;-69
2024/03/29 00:43:56;;;;;;;3.33;0.83;;;;;;;;;;473752;28;1358;-69
2024/03/29 00:44:12;;;;;;;3.47;0.88;;;;;;;;;;471315;28;1074;-69
2024/03/29 00:44:27;;;;;;;3.40;0.80;;;;;;;;;;474194;28;1095;-69
2024/03/29 00:44:43;;;;;;;2.25;0.60;;;;;;;;;;474206;28;1953;-69
2024/03/29 00:44:58;;;;;;;1.50;0.60;;;;;;;;;;472741;28;858;-69
2024/03/29 00:45:14;;;;;;;2.53;0.70;;;;;;;;;;474504;28;2717;-69
2024/03/29 00:45:29;;;;;;;2.83;0.80;;;;;;;;;;475433;28;1390;-69
2024/03/29 00:45:45;;;;;;;2.13;0.70;;;;;;;;;;475231;28;1137;-68
2024/03/29 00:46:00;;;;;;;2.97;0.70;;;;;;;;;;474352;28;899;-69
2024/03/29 00:46:15;;;;;;;3.33;0.80;;;;;;;;;;473390;28;1151;-69
2024/03/29 00:46:31;;;;;;;2.78;0.85;;;;;;;;;;473501;28;1110;-68
2024/03/29 00:46:46;;;;;;;2.43;0.80;;;;;;;;;;473501;28;1230;-68
2024/03/29 00:47:01;;;;;;;2.53;0.80;;;;;;;;;;473387;28;1104;-69
2024/03/29 00:47:17;;;;;;;2.38;0.70;;;;;;;;;;473384;28;1384;-68
2024/03/29 00:47:32;;;;;;;1.90;0.63;;;;;;;;;;472647;28;1268;-69
2024/03/29 00:47:48;;;;;;;2.23;0.77;;;;;;;;;;475507;28;997;-68
2024/03/29 00:48:03;;;;;;;2.05;0.73;;;;;;;;;;475048;28;913;-68
2024/03/29 00:48:20;;;;;;;2.20;0.63;;;;;;;;;;475664;28;1257;-68
2024/03/29 00:48:35;;;;;;;2.75;0.70;;;;;;;;;;476407;28;894;-68
2024/03/29 00:48:50;;;;;;;2.30;0.80;;;;;;;;;;476703;28;1170;-69
2024/03/29 00:49:06;;;;;;;2.25;0.75;;;;;;;;;;475674;28;1006;-70
2024/03/29 00:49:21;;;;;;;3.33;0.90;;;;;;;;;;474388;28;1053;-69
2024/03/29 00:49:36;;;;;;;3.67;0.97;;;;;;;;;;474552;28;1323;-69
2024/03/29 00:49:52;;;;;;;3.15;0.90;;;;;;;;;;474171;28;903;-68
2024/03/29 00:50:09;;;;;;;3.10;0.90;;;;;;;;;;474817;28;980;-68
2024/03/29 00:50:24;;;;;;;3.08;0.88;;;;;;;;;;472348;28;1139;-69
2024/03/29 00:50:40;;;;;;;2.35;0.80;;;;;;;;;;473589;28;1219;-69
2024/03/29 00:50:55;;;;;;;2.00;0.70;;;;;;;;;;475225;28;1040;-68
2024/03/29 00:51:11;;;;;;;3.10;0.80;;;;;;;;;;475516;28;1245;-69
2024/03/29 00:51:26;;;;;;;2.93;0.80;;;;;;;;;;477776;28;1078;-68
2024/03/29 00:51:42;;;;;;;2.85;0.70;;;;;;;;;;474321;28;1277;-69
2024/03/29 00:51:57;;;;;;;3.23;0.80;;;;;;;;;;475042;28;1082;-68
2024/03/29 00:52:12;;;;;;;2.90;0.80;;;;;;;;;;475600;28;1081;-68
2024/03/29 00:52:27;;;;;;;2.83;0.80;;;;;;;;;;477142;28;933;-69
2024/03/29 00:52:43;;;;;;;2.83;0.90;;;;;;;;;;477118;28;862;-68
2024/03/29 00:52:58;;;;;;;2.67;0.80;;;;;;;;;;477108;28;1053;-68
2024/03/29 00:53:13;;;;;;;4.93;0.90;;;;;;;;;;477445;28;960;-69
2024/03/29 00:53:29;;;;;;;5.38;0.95;;;;;;;;;;475776;28;1183;-69
2024/03/29 00:53:45;;;;;;;3.00;0.85;;;;;;;;;;476122;28;1281;-69
2024/03/29 00:54:00;;;;;;;2.70;0.73;;;;;;;;;;475471;28;964;-69
2024/03/29 00:54:16;;;;;;;2.65;0.88;;;;;;;;;;475665;28;1120;-69
2024/03/29 00:54:31;;;;;;;2.07;0.80;;;;;;;;;;472942;28;1126;-68
2024/03/29 00:54:47;;;;;;;2.40;0.70;;;;;;;;;;471018;28;1253;-69
2024/03/29 00:55:03;;;;;;;2.93;0.80;;;;;;;;;;472056;28;1162;-69
2024/03/29 00:55:18;;;;;;;2.10;0.70;;;;;;;;;;471165;28;953;-69
2024/03/29 00:55:33;;;;;;;2.23;0.80;;;;;;;;;;473434;28;1124;-69
2024/03/29 00:55:49;;;;;;;2.28;0.93;;;;;;;;;;472808;28;1146;-68
2024/03/29 00:56:04;;;;;;;2.63;0.87;;;;;;;;;;471668;28;1123;-69
2024/03/29 00:56:20;;;;;;;2.92;0.85;;;;;;;;;;470256;28;1400;-70
2024/03/29 00:56:35;;;;;;;2.50;0.75;;;;;;;;;;471545;28;918;-69
2024/03/29 00:56:51;;;;;;;2.43;0.70;;;;;;;;;;473577;28;1036;-69
2024/03/29 00:57:12;;;;;;;1.85;0.68;;;;;;;;;;470954;28;1146;-68
2024/03/29 00:57:27;;;;;;;2.20;0.80;;;;;;;;;;472819;28;1583;-69
2024/03/29 00:57:43;;;;;;;2.22;0.88;;;;;;;;;;473889;28;929;-70
2024/03/29 00:57:58;;;;;;;2.07;0.70;;;;;;;;;;472673;28;1218;-69
2024/03/29 00:58:13;;;;;;;3.03;0.80;;;;;;;;;;472796;28;1130;-69
2024/03/29 00:58:29;;;;;;;3.28;0.88;;;;;;;;;;473431;28;901;-69
2024/03/29 00:58:45;;;;;;;2.27;0.83;;;;;;;;;;473722;28;995;-69
2024/03/29 00:59:00;;;;;;;2.03;0.88;;;;;;;;;;474394;28;1302;-70
2024/03/29 00:59:16;;;;;;;2.50;0.90;;;;;;;;;;474807;28;886;-69
2024/03/29 00:59:31;;;;;;;2.33;0.82;;;;;;;;;;475195;28;984;-69
2024/03/29 00:59:46;;;;;;;1.93;0.80;;;;;;;;;;473566;28;1544;-69
2024/03/29 01:00:03;;;;;;;1.90;0.70;;;;;;;;;;474600;28;886;-68
2024/03/29 01:00:19;;;;;;;2.28;0.90;;;;;;;;;;473972;28;1144;-68
2024/03/29 01:00:34;;;;;;;2.37;0.83;;;;;;;;;;471966;28;1165;-69
2024/03/29 01:00:50;;;;;;;2.00;0.70;;;;;;;;;;473518;28;974;-68
2024/03/29 01:01:05;;;;;;;2.40;0.73;;;;;;;;;;474198;28;1152;-69
2024/03/29 01:01:20;;;;;;;2.47;0.80;;;;;;;;;;472565;28;1148;-69
2024/03/29 01:01:36;;;;;;;1.63;0.70;;;;;;;;;;472484;28;1115;-69
2024/03/29 01:01:51;;;;;;;2.00;0.80;;;;;;;;;;472229;28;862;-69
2024/03/29 01:02:06;;;;;;;2.80;0.90;;;;;;;;;;472908;28;1420;-68
2024/03/29 01:02:23;;;;;;;2.33;0.80;;;;;;;;;;473451;28;1548;-69
2024/03/29 01:02:38;;;;;;;1.92;0.80;;;;;;;;;;473033;28;1341;-69
2024/03/29 01:02:54;;;;;;;1.53;0.73;;;;;;;;;;473486;28;1365;-68
2024/03/29 01:03:09;;;;;;;2.10;0.70;;;;;;;;;;473194;28;1008;-69
2024/03/29 01:03:24;;;;;;;2.90;0.73;;;;;;;;;;475648;28;854;-68
2024/03/29 01:03:39;;;;;;;2.70;0.70;;;;;;;;;;474737;28;1314;-68
2024/03/29 01:03:55;;;;;;;2.73;0.80;;;;;;;;;;474129;28;1336;-69
2024/03/29 01:04:11;;;;;;;2.40;0.80;;;;;;;;;;473363;28;1042;-69
2024/03/29 01:04:26;;;;;;;1.80;0.73;;;;;;;;;;471811;28;1145;-69
2024/03/29 01:04:41;;;;;;;2.65;0.80;;;;;;;;;;472577;28;2036;-68
2024/03/29 01:04:57;;;;;;;3.67;0.87;;;;;;;;;;475005;28;945;-69
2024/03/29 01:05:12;;;;;;;3.53;1.00;;;;;;;;;;473667;28;1018;-69
2024/03/29 01:05:27;;;;;;;3.03;0.93;;;;;;;;;;475128;28;879;-69
2024/03/29 01:05:43;;;;;;;3.43;0.90;;;;;;;;;;474347;28;1110;-68
2024/03/29 01:05:58;;;;;;;3.67;0.97;;;;;;;;;;476153;28;1296;-69
2024/03/29 01:06:13;;;;;;;3.42;0.93;;;;;;;;;;476161;28;994;-69
2024/03/29 01:06:29;;;;;;;2.60;0.70;;;;;;;;;;477377;28;932;-69
2024/03/29 01:06:44;;;;;;;2.27;0.60;;;;;;;;;;477045;28;937;-68
2024/03/29 01:06:59;;;;;;;3.08;0.73;;;;;;;;;;477210;28;984;-69
2024/03/29 01:07:16;;;;;;;2.80;0.80;;;;;;;;;;475564;28;1048;-69
2024/03/29 01:07:31;;;;;;;1.60;0.70;;;;;;;;;;475271;28;909;-69
2024/03/29 01:07:47;;;;;;;2.17;0.77;;;;;;;;;;473440;28;1191;-68
2024/03/29 01:08:02;;;;;;;2.67;0.70;;;;;;;;;;476402;28;906;-68
2024/03/29 01:08:18;;;;;;;2.37;0.70;;;;;;;;;;474875;28;945;-68
2024/03/29 01:08:33;;;;;;;1.80;0.60;;;;;;;;;;474917;28;1218;-68
2024/03/29 01:08:48;;;;;;;1.80;0.60;;;;;;;;;;475156;28;964;-68
2024/03/29 01:09:04;;;;;;;1.73;0.70;;;;;;;;;;474825;28;1139;-68
2024/03/29 01:09:20;;;;;;;1.75;0.60;;;;;;;;;;476257;28;1060;-68
2024/03/29 01:09:36;;;;;;;2.37;0.70;;;;;;;;;;474342;28;909;-68
2024/03/29 01:09:51;;;;;;;3.00;0.80;;;;;;;;;;473334;28;1465;-68
2024/03/29 01:10:08;;;;;;;2.60;0.73;;;;;;;;;;472451;28;1318;-68
2024/03/29 01:10:24;;;;;;;2.47;0.60;;;;;;;;;;473158;28;938;-68
2024/03/29 01:10:39;;;;;;;2.77;0.67;;;;;;;;;;473512;28;874;-68
2024/03/29 01:10:54;;;;;;;2.88;0.73;;;;;;;;;;474958;28;1258;-69
2024/03/29 01:11:10;;;;;;;2.83;0.70;;;;;;;;;;471433;28;936;-69
2024/03/29 01:11:25;;;;;;;2.47;0.83;;;;;;;;;;471746;28;952;-68
2024/03/29 01:11:40;;;;;;;2.95;1.00;;;;;;;;;;471683;28;930;-69
2024/03/29 01:11:55;;;;;;;3.43;1.00;;;;;;;;;;472571;28;1169;-69
2024/03/29 01:12:11;;;;;;;3.87;0.90;;;;;;;;;;474095;28;1017;-69
2024/03/29 01:12:26;;;;;;;3.90;0.80;;;;;;;;;;474498;28;881;-68
2024/03/29 01:12:42;;;;;;;3.87;0.80;;;;;;;;;;473878;28;1197;-69
2024/03/29 01:12:57;;;;;;;4.00;0.85;;;;;;;;;;474073;28;916;-69
2024/03/29 01:13:12;;;;;;;3.53;0.90;;;;;;;;;;478672;28;894;-69
2024/03/29 01:13:28;;;;;;;2.83;0.80;;;;;;;;;;478504;28;934;-69
2024/03/29 01:13:43;;;;;;;2.05;0.70;;;;;;;;;;477546;28;901;-68
2024/03/29 01:13:59;;;;;;;1.67;0.70;;;;;;;;;;477502;28;1190;-68
2024/03/29 01:14:14;;;;;;;1.77;0.67;;;;;;;;;;476796;28;1256;-69
2024/03/29 01:14:29;;;;;;;1.55;0.60;;;;;;;;;;475919;28;1084;-68
2024/03/29 01:14:45;;;;;;;1.90;0.70;;;;;;;;;;471867;28;1192;-68
2024/03/29 01:15:02;;;;;;;2.10;0.60;;;;;;;;;;470795;28;1322;-68
2024/03/29 01:15:17;;;;;;;1.70;0.60;;;;;;;;;;470843;28;1153;-69
2024/03/29 01:15:32;;;;;;;1.58;0.70;;;;;;;;;;470721;28;1639;-68
2024/03/29 01:15:47;;;;;;;1.53;0.70;;;;;;;;;;470793;28;882;-69
2024/03/29 01:16:04;;;;;;;1.30;0.63;;;;;;;;;;472434;28;1132;-69
2024/03/29 01:16:19;;;;;;;1.92;0.60;;;;;;;;;;472619;28;1133;-69
2024/03/29 01:16:34;;;;;;;2.00;0.50;;;;;;;;;;473415;28;1013;-69
2024/03/29 01:16:50;;;;;;;1.93;0.60;;;;;;;;;;475183;28;878;-69
2024/03/29 01:17:06;;;;;;;1.83;0.60;;;;;;;;;;473975;28;1035;-69
2024/03/29 01:17:22;;;;;;;1.98;0.65;;;;;;;;;;475399;28;1102;-69
2024/03/29 01:17:37;;;;;;;1.70;0.60;;;;;;;;;;474699;28;1278;-69
2024/03/29 01:17:52;;;;;;;1.48;0.60;;;;;;;;;;473774;28;1071;-69
2024/03/29 01:18:07;;;;;;;1.40;0.60;;;;;;;;;;474758;28;1130;-69
2024/03/29 01:18:23;;;;;;;0.97;0.57;;;;;;;;;;474859;28;1204;-68
2024/03/29 01:18:38;;;;;;;1.33;0.60;;;;;;;;;;473115;28;1227;-68
2024/03/29 01:18:54;;;;;;;2.40;0.70;;;;;;;;;;472189;28;1047;-69
2024/03/29 01:19:10;;;;;;;2.38;0.70;;;;;;;;;;473060;28;1206;-69
2024/03/29 01:19:25;;;;;;;2.28;0.90;;;;;;;;;;473743;28;932;-69
2024/03/29 01:19:40;;;;;;;1.70;0.80;;;;;;;;;;473123;28;970;-69
2024/03/29 01:19:56;;;;;;;1.13;0.60;;;;;;;;;;473426;28;911;-69
2024/03/29 01:20:12;;;;;;;2.75;0.70;;;;;;;;;;474928;28;986;-69
2024/03/29 01:20:27;;;;;;;3.53;0.80;;;;;;;;;;473541;28;1101;-68
2024/03/29 01:20:43;;;;;;;2.83;1.00;;;;;;;;;;473413;28;1220;-68
2024/03/29 01:20:58;;;;;;;2.72;1.00;;;;;;;;;;473321;28;1108;-69
2024/03/29 01:21:14;;;;;;;1.90;0.80;;;;;;;;;;475592;28;921;-69
2024/03/29 01:21:29;;;;;;;1.90;0.70;;;;;;;;;;474810;28;920;-68
2024/03/29 01:21:44;;;;;;;2.30;0.80;;;;;;;;;;475602;28;1268;-68
2024/03/29 01:22:00;;;;;;;1.50;0.60;;;;;;;;;;475651;28;1274;-69
2024/03/29 01:22:15;;;;;;;2.10;0.70;;;;;;;;;;473392;28;1284;-68
2024/03/29 01:22:30;;;;;;;3.33;0.90;;;;;;;;;;473778;28;989;-68
2024/03/29 01:22:46;;;;;;;2.50;0.80;;;;;;;;;;474639;28;893;-69
2024/03/29 01:23:01;;;;;;;2.10;0.70;;;;;;;;;;475255;28;1210;-69
2024/03/29 01:23:16;;;;;;;2.50;0.80;;;;;;;;;;475760;28;1097;-68
2024/03/29 01:23:32;;;;;;;2.55;0.75;;;;;;;;;;476016;28;1015;-69
2024/03/29 01:23:47;;;;;;;2.20;0.70;;;;;;;;;;476822;28;918;-68
2024/03/29 01:24:03;;;;;;;1.40;0.70;;;;;;;;;;476601;28;1083;-68
2024/03/29 01:24:19;;;;;;;1.13;0.50;;;;;;;;;;477748;27;1590;-69
2024/03/29 01:24:35;;;;;;;2.03;0.70;;;;;;;;;;476472;28;975;-69
2024/03/29 01:24:50;;;;;;;2.95;0.90;;;;;;;;;;477474;28;1954;-68
2024/03/29 01:25:07;;;;;;;2.83;0.90;;;;;;;;;;476827;28;945;-69
2024/03/29 01:25:24;;;;;;;2.08;0.65;;;;;;;;;;475409;28;946;-69
2024/03/29 01:25:39;;;;;;;2.88;0.80;;;;;;;;;;475014;28;945;-69
2024/03/29 01:25:54;;;;;;;3.57;1.17;;;;;;;;;;475337;28;960;-69
2024/03/29 01:26:14;;;;;;;3.35;1.00;;;;;;;;;;474759;28;874;-69
2024/03/29 01:26:29;;;;;;;3.35;0.80;;;;;;;;;;476318;28;882;-69
2024/03/29 01:26:45;;;;;;;2.37;0.80;;;;;;;;;;477502;28;1058;-69
2024/03/29 01:27:00;;;;;;;3.42;0.80;;;;;;;;;;476663;28;897;-69
2024/03/29 01:27:15;;;;;;;2.67;0.60;;;;;;;;;;476987;28;1073;-69
2024/03/29 01:27:31;;;;;;;2.23;0.70;;;;;;;;;;476724;28;1160;-69
2024/03/29 01:27:46;;;;;;;2.30;0.88;;;;;;;;;;478129;28;1067;-70
2024/03/29 01:28:01;;;;;;;2.10;0.90;;;;;;;;;;477922;27;986;-69
2024/03/29 01:28:16;;;;;;;1.80;0.80;;;;;;;;;;479222;27;893;-68
2024/03/29 01:28:32;;;;;;;1.60;0.80;;;;;;;;;;479429;27;1067;-69
2024/03/29 01:28:47;;;;;;;3.00;0.83;;;;;;;;;;479206;27;920;-68
2024/03/29 01:29:03;;;;;;;2.77;0.70;;;;;;;;;;476061;28;1229;-69
2024/03/29 01:29:18;;;;;;;1.35;0.55;;;;;;;;;;478022;28;944;-69
2024/03/29 01:29:33;;;;;;;1.63;0.60;;;;;;;;;;476173;28;1008;-68
2024/03/29 01:29:49;;;;;;;1.37;0.60;;;;;;;;;;476245;28;1179;-69
2024/03/29 01:30:04;;;;;;;1.33;0.57;;;;;;;;;;476156;28;1267;-69
2024/03/29 01:30:21;;;;;;;1.92;0.63;;;;;;;;;;475875;28;1302;-69
2024/03/29 01:30:37;;;;;;;2.45;0.82;;;;;;;;;;474829;28;1014;-68
2024/03/29 01:30:55;;;;;;;2.85;0.80;;;;;;;;;;473783;28;1136;-68
2024/03/29 01:31:11;;;;;;;2.30;0.70;;;;;;;;;;473510;28;1100;-69
2024/03/29 01:31:27;;;;;;;1.95;0.75;;;;;;;;;;473963;28;1043;-69
2024/03/29 01:31:42;;;;;;;2.73;0.90;;;;;;;;;;474819;28;1168;-68
2024/03/29 01:31:58;;;;;;;3.13;1.10;;;;;;;;;;475318;28;972;-69
2024/03/29 01:32:13;;;;;;;2.45;1.00;;;;;;;;;;475734;28;905;-68
2024/03/29 01:32:29;;;;;;;2.10;0.80;;;;;;;;;;475173;28;953;-68
2024/03/29 01:32:44;;;;;;;2.47;0.80;;;;;;;;;;475449;28;917;-68
2024/03/29 01:32:59;;;;;;;2.10;0.70;;;;;;;;;;477069;28;862;-69
2024/03/29 01:33:15;;;;;;;1.97;0.83;;;;;;;;;;474571;28;1147;-69
2024/03/29 01:33:33;;;;;;;2.60;1.00;;;;;;;;;;474833;28;886;-69
2024/03/29 01:33:49;;;;;;;2.53;1.00;;;;;;;;;;475398;28;1111;-69
2024/03/29 01:34:04;;;;;;;3.25;0.90;;;;;;;;;;473997;28;1424;-69
2024/03/29 01:34:19;;;;;;;3.23;0.80;;;;;;;;;;474783;28;878;-68
2024/03/29 01:34:35;;;;;;;1.90;0.70;;;;;;;;;;474070;28;1006;-70
2024/03/29 01:34:50;;;;;;;1.70;0.70;;;;;;;;;;473841;28;1069;-69
2024/03/29 01:35:05;;;;;;;3.30;0.70;;;;;;;;;;474858;28;1081;-69
2024/03/29 01:35:21;;;;;;;3.88;0.70;;;;;;;;;;474799;28;1104;-69
2024/03/29 01:35:36;;;;;;;2.57;0.70;;;;;;;;;;474153;28;987;-69
2024/03/29 01:35:52;;;;;;;1.53;0.70;;;;;;;;;;476467;28;1402;-69
2024/03/29 01:36:08;;;;;;;3.17;0.80;;;;;;;;;;473881;28;1076;-69
2024/03/29 01:36:23;;;;;;;3.10;0.80;;;;;;;;;;473143;28;1070;-69
2024/03/29 01:36:38;;;;;;;2.80;0.77;;;;;;;;;;473776;28;1035;-69